Dades meteomassalio
Diari Summary for Gener 18, 2017 Units:  Metric    English   Both
« Previous Day
Next Day »
Diari Semanal Mensual Anual Personalitzat
  Maxima: Minima: Mijana:
Temperatura: -17.8 °C -19.6 °C -18 °C
Rosada: -17.8 °C -24.1 °C -22.3 °C
Humitat: Humidity % 41 % 57 %
Velocitat del vent: 0 km/h 0 km/h 24.3 km/h
Racha vent: 0 km/h - -
Vent:- - West
Pressio: 0 hPa 34611.7 hPa -
Pluja: 0 mm    
Historical Graphs
 
 
Tabular Data for Gener 18, 2017
Time Temperature Dew Point Pressure Wind Wind Speed Wind Gust Humidity Rainfall Rate (Hourly) solar Conditions
-17.8 °C -17.8 °C 0 hPa Calm     Humidity % 0 mm SolarRadiationWatts/m^2 W/m2 Conditions
00:02 -17.9 °C -22.1 °C 34611.7 hPa West 32.8 km/h 32.8 km/h 57 % 0 mm 0.0 W/m2 CLR
00:07 -17.9 °C -22.1 °C 34611.7 hPa West 44.7 km/h 44.7 km/h 57 % 0 mm 0.0 W/m2 CLR
00:12 -17.9 °C -22.1 °C 34611.7 hPa West 35.7 km/h 35.7 km/h 57 % 0 mm 0.0 W/m2 CLR
00:17 -17.9 °C -22.2 °C 34611.7 hPa West 29.8 km/h 29.8 km/h 56 % 0 mm 0.0 W/m2 CLR
00:22 -17.9 °C -22.2 °C 34611.7 hPa West 38.8 km/h 38.8 km/h 56 % 0 mm 0.0 W/m2 CLR
00:27 -17.9 °C -22.2 °C 34611.7 hPa West 44.7 km/h 44.7 km/h 56 % 0 mm 0.0 W/m2 CLR
00:32 -17.9 °C -22.2 °C 34611.7 hPa West 41.7 km/h 41.7 km/h 56 % 0 mm 0.0 W/m2 CLR
00:37 -17.9 °C -22.2 °C 34611.7 hPa West 38.8 km/h 38.8 km/h 56 % 0 mm 0.0 W/m2 CLR
00:42 -17.9 °C -22.3 °C 34611.7 hPa West 29.8 km/h 29.8 km/h 56 % 0 mm 0.0 W/m2 CLR
00:47 -18 °C -22.3 °C 34611.7 hPa West 41.4 km/h 41.4 km/h 56 % 0 mm 0.0 W/m2 CLR
00:52 -18 °C -22.2 °C 34625.2 hPa West 38.8 km/h 38.8 km/h 57 % 0 mm 0.0 W/m2 CLR
00:57 -18.1 °C -22.2 °C 34625.2 hPa West 35.7 km/h 35.7 km/h 57 % 0 mm 0.0 W/m2 CLR
01:02 -18.1 °C -22.3 °C 34625.2 hPa West 32.8 km/h 32.8 km/h 57 % 0 mm 0.0 W/m2 CLR
01:07 -18.1 °C -22.3 °C 34625.2 hPa West 29.8 km/h 29.8 km/h 57 % 0 mm 0.0 W/m2 CLR
01:12 -18.2 °C -22.3 °C 34611.7 hPa West 29.8 km/h 29.8 km/h 57 % 0 mm 0.0 W/m2 CLR
01:17 -18.2 °C -22.3 °C 34611.7 hPa West 26.9 km/h 26.9 km/h 57 % 0 mm 0.0 W/m2 CLR
01:22 -18.2 °C -22.4 °C 34611.7 hPa West 29.8 km/h 29.8 km/h 57 % 0 mm 0.0 W/m2 CLR
01:27 -18.2 °C -22.3 °C 34611.7 hPa West 20.9 km/h 20.9 km/h 58 % 0 mm 0.0 W/m2 CLR
01:32 -18.3 °C -22.3 °C 34611.7 hPa West 38.8 km/h 38.8 km/h 58 % 0 mm 0.0 W/m2 CLR
01:37 -18.3 °C -22.3 °C 34611.7 hPa West 41.7 km/h 41.7 km/h 58 % 0 mm 0.0 W/m2 CLR
01:42 -18.3 °C -22.3 °C 34611.7 hPa West 28.5 km/h 28.5 km/h 58 % 0 mm 0.0 W/m2 CLR
01:47 -18.3 °C -22.3 °C 34611.7 hPa West 29.8 km/h 29.8 km/h 58 % 0 mm 0.0 W/m2 CLR
01:52 -18.3 °C -22.3 °C 34611.7 hPa West 32.8 km/h 32.8 km/h 58 % 0 mm 0.0 W/m2 CLR
01:57 -18.3 °C -22.3 °C 34611.7 hPa West 36.2 km/h 36.2 km/h 58 % 0 mm 0.0 W/m2 CLR
02:02 -18.4 °C -22.3 °C 34625.2 hPa West 32.8 km/h 32.8 km/h 59 % 0 mm 0.0 W/m2 CLR
02:07 -18.4 °C -22.4 °C 34625.2 hPa WNW 47.6 km/h 47.6 km/h 58 % 0 mm 0.0 W/m2 CLR
02:12 -18.4 °C -22.4 °C 34625.2 hPa WNW 41.7 km/h 41.7 km/h 58 % 0 mm 0.0 W/m2 CLR
02:17 -18.4 °C -22.4 °C 34625.2 hPa West 41.7 km/h 41.7 km/h 58 % 0 mm 0.0 W/m2 CLR
02:22 -18.4 °C -22.4 °C 34625.2 hPa West 36.2 km/h 36.2 km/h 58 % 0 mm 0.0 W/m2 CLR
02:27 -18.4 °C -22.4 °C 34625.2 hPa West 31.1 km/h 31.1 km/h 58 % 0 mm 0.0 W/m2 CLR
02:32 -18.4 °C -22.6 °C 34635.4 hPa West 38.8 km/h 38.8 km/h 57 % 0 mm 0.0 W/m2 CLR
02:37 -18.4 °C -22.6 °C 34635.4 hPa West 41.7 km/h 41.7 km/h 57 % 0 mm 0.0 W/m2 CLR
02:42 -18.4 °C -22.6 °C 34635.4 hPa West 38.8 km/h 38.8 km/h 57 % 0 mm 0.0 W/m2 CLR
02:47 -18.4 °C -22.6 °C 34635.4 hPa West 29.8 km/h 29.8 km/h 57 % 0 mm 0.0 W/m2 CLR
02:52 -18.4 °C -22.6 °C 34635.4 hPa West 44.7 km/h 44.7 km/h 57 % 0 mm 0.0 W/m2 CLR
02:57 -18.5 °C -22.6 °C 34645.6 hPa WNW 32.8 km/h 32.8 km/h 57 % 0 mm 0.0 W/m2 CLR
03:02 -18.5 °C -22.7 °C 34645.6 hPa West 29.8 km/h 29.8 km/h 57 % 0 mm 0.0 W/m2 CLR
03:07 -18.6 °C -22.7 °C 34645.6 hPa West 26.9 km/h 26.9 km/h 57 % 0 mm 0.0 W/m2 CLR
03:12 -18.5 °C -22.6 °C 34645.6 hPa West 32.8 km/h 32.8 km/h 57 % 0 mm 0.0 W/m2 CLR
03:17 -18.5 °C -22.7 °C 34645.6 hPa West 33.6 km/h 33.6 km/h 57 % 0 mm 0.0 W/m2 CLR
03:22 -18.5 °C -22.8 °C 34645.6 hPa West 29.8 km/h 29.8 km/h 56 % 0 mm 0.0 W/m2 CLR
03:27 -18.6 °C -22.7 °C 34645.6 hPa West 29.8 km/h 29.8 km/h 57 % 0 mm 0.0 W/m2 CLR
03:32 -18.6 °C -22.7 °C 34659.1 hPa West 33.6 km/h 33.6 km/h 57 % 0 mm 0.0 W/m2 CLR
03:37 -18.6 °C -22.7 °C 34659.1 hPa West 29.8 km/h 29.8 km/h 57 % 0 mm 0.0 W/m2 CLR
03:42 -18.7 °C -22.8 °C 34659.1 hPa West 23.8 km/h 23.8 km/h 57 % 0 mm 0.0 W/m2 CLR
03:47 -18.7 °C -22.8 °C 34659.1 hPa West 23.8 km/h 23.8 km/h 57 % 0 mm 0.0 W/m2 CLR
03:52 -18.7 °C -22.8 °C 34669.3 hPa West 26.9 km/h 26.9 km/h 57 % 0 mm 0.0 W/m2 CLR
03:57 -18.7 °C -22.8 °C 34669.3 hPa West 25.9 km/h 25.9 km/h 57 % 0 mm 0.0 W/m2 CLR
04:03 -18.7 °C -22.8 °C 34669.3 hPa West 29.8 km/h 29.8 km/h 57 % 0 mm 0.0 W/m2 CLR
04:08 -18.8 °C -22.9 °C 34669.3 hPa West 15.6 km/h 15.6 km/h 57 % 0 mm 0.0 W/m2 CLR
04:13 -18.8 °C -22.9 °C 34669.3 hPa West 23.8 km/h 23.8 km/h 57 % 0 mm 0.0 W/m2 CLR
04:18 -18.8 °C -22.8 °C 34669.3 hPa West 18.2 km/h 18.2 km/h 58 % 0 mm 0.0 W/m2 CLR
04:23 -18.8 °C -22.8 °C 34669.3 hPa West 23.8 km/h 23.8 km/h 58 % 0 mm 0.0 W/m2 CLR
04:28 -18.8 °C -22.9 °C 34669.3 hPa West 32.8 km/h 32.8 km/h 57 % 0 mm 0.0 W/m2 CLR
04:33 -18.8 °C -22.9 °C 34669.3 hPa West 29.8 km/h 29.8 km/h 57 % 0 mm 0.0 W/m2 CLR
04:38 -18.8 °C -22.9 °C 34669.3 hPa West 23.8 km/h 23.8 km/h 57 % 0 mm 0.0 W/m2 CLR
04:43 -18.8 °C -22.9 °C 34669.3 hPa West 29.8 km/h 29.8 km/h 57 % 0 mm 0.0 W/m2 CLR
04:48 -18.9 °C -22.9 °C 34669.3 hPa WSW 12.9 km/h 12.9 km/h 58 % 0 mm 0.0 W/m2 CLR
04:53 -19 °C -23 °C 34669.3 hPa WSW 17.9 km/h 17.9 km/h 58 % 0 mm 0.0 W/m2 CLR
04:58 -19.1 °C -22.9 °C 34669.3 hPa WSW 15 km/h 15 km/h 59 % 0 mm 0.0 W/m2 CLR
05:03 -19.1 °C -22.9 °C 34669.3 hPa WSW 23.8 km/h 23.8 km/h 59 % 0 mm 0.0 W/m2 CLR
05:08 -19.1 °C -23 °C 34669.3 hPa WSW 18.2 km/h 18.2 km/h 59 % 0 mm 0.0 W/m2 CLR
05:13 -19.2 °C -23 °C 34669.3 hPa WSW 17.9 km/h 17.9 km/h 59 % 0 mm 0.0 W/m2 CLR
05:18 -19.2 °C -22.9 °C 34669.3 hPa WSW 15 km/h 15 km/h 60 % 0 mm 0.0 W/m2 CLR
05:23 -19.2 °C -22.9 °C 34669.3 hPa WSW 15 km/h 15 km/h 60 % 0 mm 0.0 W/m2 CLR
05:28 -19.2 °C -22.9 °C 34669.3 hPa WSW 17.9 km/h 17.9 km/h 60 % 0 mm 0.0 W/m2 CLR
05:29 -19.2 °C -22.9 °C 34669.3 hPa WSW 20.9 km/h 20.9 km/h 60 % 0 mm 0.0 W/m2 CLR
05:34 -19.2 °C -22.9 °C 34669.3 hPa WSW 20.9 km/h 20.9 km/h 60 % 0 mm 0.0 W/m2 CLR
05:39 -19.2 °C -22.9 °C 34682.8 hPa WSW 17.9 km/h 17.9 km/h 60 % 0 mm 0.0 W/m2 CLR
05:40 -19.3 °C -23 °C 34669.3 hPa WSW 18.2 km/h 18.2 km/h 60 % 0 mm 0.0 W/m2 CLR
05:45 -19.3 °C -23 °C 34682.8 hPa WSW 20.9 km/h 20.9 km/h 60 % 0 mm 0.0 W/m2 CLR
05:50 -19.3 °C -23 °C 34669.3 hPa WSW 29.8 km/h 29.8 km/h 60 % 0 mm 0.0 W/m2 CLR
05:55 -19.3 °C -23 °C 34669.3 hPa WSW 26.9 km/h 26.9 km/h 60 % 0 mm 0.0 W/m2 CLR
06:00 -19.3 °C -23.1 °C 34682.8 hPa WSW 23.8 km/h 23.8 km/h 59 % 0 mm 0.0 W/m2 CLR
06:05 -19.3 °C -23.1 °C 34682.8 hPa WSW 23.8 km/h 23.8 km/h 59 % 0 mm 0.0 W/m2 CLR
06:11 -19.3 °C -23.1 °C 34682.8 hPa WSW 26.9 km/h 26.9 km/h 59 % 0 mm 0.0 W/m2 CLR
06:16 -19.3 °C -23.1 °C 34669.3 hPa WSW 23.8 km/h 23.8 km/h 59 % 0 mm 0.0 W/m2 CLR
06:21 -19.3 °C -23.2 °C 34682.8 hPa WSW 26.9 km/h 26.9 km/h 58 % 0 mm 0.0 W/m2 CLR
06:26 -19.2 °C -23.2 °C 34682.8 hPa WSW 26.9 km/h 26.9 km/h 58 % 0 mm 0.0 W/m2 CLR
06:31 -19.3 °C -23.2 °C 34682.8 hPa WSW 23.8 km/h 23.8 km/h 58 % 0 mm 0.0 W/m2 CLR
06:36 -19.3 °C -23.2 °C 34682.8 hPa WSW 26.9 km/h 26.9 km/h 58 % 0 mm 0.0 W/m2 CLR
06:41 -19.3 °C -23.2 °C 34682.8 hPa WSW 23.8 km/h 23.8 km/h 58 % 0 mm 0.0 W/m2 CLR
06:46 -19.3 °C -23.2 °C 34682.8 hPa WSW 23.8 km/h 23.8 km/h 58 % 0 mm 0.0 W/m2 CLR
06:51 -19.3 °C -23.3 °C 34682.8 hPa WSW 26.9 km/h 26.9 km/h 58 % 0 mm 0.0 W/m2 CLR
06:56 -19.3 °C -23.3 °C 34682.8 hPa WSW 26.9 km/h 26.9 km/h 58 % 0 mm 0.0 W/m2 CLR
07:01 -19.3 °C -23.3 °C 34682.8 hPa WSW 23.8 km/h 23.8 km/h 58 % 0 mm 0.0 W/m2 CLR
07:06 -19.4 °C -23.3 °C 34693 hPa WSW 20.9 km/h 20.9 km/h 58 % 0 mm 0.0 W/m2 CLR
07:11 -19.3 °C -23.3 °C 34693 hPa WSW 20.9 km/h 20.9 km/h 58 % 0 mm 0.0 W/m2 CLR
07:16 -19.4 °C -23.3 °C 34693 hPa WSW 23.8 km/h 23.8 km/h 58 % 0 mm 0.0 W/m2 CLR
07:21 -19.4 °C -23.3 °C 34693 hPa WSW 20.9 km/h 20.9 km/h 58 % 0 mm 0.0 W/m2 CLR
07:26 -19.4 °C -23.5 °C 34693 hPa WSW 18.2 km/h 18.2 km/h 57 % 0 mm 0.0 W/m2 CLR
07:31 -19.4 °C -23.4 °C 34693 hPa WSW 17.9 km/h 17.9 km/h 57 % 0 mm 0.0 W/m2 CLR
07:36 -19.4 °C -23.5 °C 34693 hPa WSW 17.9 km/h 17.9 km/h 57 % 0 mm 0.0 W/m2 CLR
07:41 -19.4 °C -23.5 °C 34693 hPa WSW 20.9 km/h 20.9 km/h 57 % 0 mm 0.0 W/m2 CLR
07:46 -19.4 °C -23.5 °C 34703.1 hPa WSW 20.8 km/h 20.8 km/h 57 % 0 mm 0.0 W/m2 CLR
07:51 -19.4 °C -23.5 °C 34703.1 hPa WSW 15 km/h 15 km/h 57 % 0 mm 0.0 W/m2 CLR
07:56 -19.5 °C -23.6 °C 34703.1 hPa WSW 17.9 km/h 17.9 km/h 57 % 0 mm 0.0 W/m2 CLR
08:01 -19.5 °C -23.6 °C 34703.1 hPa WSW 15.6 km/h 15.6 km/h 57 % 0 mm 0.0 W/m2 CLR
08:06 -19.6 °C -23.6 °C 34703.1 hPa WSW 15.6 km/h 15.6 km/h 57 % 0 mm 0.0 W/m2 CLR
08:11 -19.6 °C -23.7 °C 34716.7 hPa WSW 18.2 km/h 18.2 km/h 57 % 0 mm 0.0 W/m2 CLR
08:16 -19.6 °C -23.7 °C 34716.7 hPa SW 15.6 km/h 15.6 km/h 57 % 0 mm 0.0 W/m2 CLR
08:21 -19.6 °C -23.7 °C 34716.7 hPa SW 17.9 km/h 17.9 km/h 57 % 0 mm 0.0 W/m2 OVC
08:26 -19.6 °C -23.7 °C 34716.7 hPa WSW 20.9 km/h 20.9 km/h 57 % 0 mm 5.0 W/m2 BKN
08:31 -19.6 °C -23.7 °C 34716.7 hPa WSW 15 km/h 15 km/h 56 % 0 mm 7.0 W/m2 BKN
08:36 -19.5 °C -23.7 °C 34716.7 hPa WSW 23.8 km/h 23.8 km/h 56 % 0 mm 9.0 W/m2 BKN
08:41 -19.4 °C -23.8 °C 34716.7 hPa WSW 20.9 km/h 20.9 km/h 55 % 0 mm 12.0 W/m2 BKN
08:46 -19.4 °C -23.7 °C 34716.7 hPa WSW 20.9 km/h 20.9 km/h 55 % 0 mm 16.0 W/m2 BKN
08:51 -19.3 °C -23.8 °C 34716.7 hPa WSW 20.9 km/h 20.9 km/h 54 % 0 mm 18.0 W/m2 BKN
08:56 -19.3 °C -23.8 °C 34716.7 hPa WSW 20.9 km/h 20.9 km/h 54 % 0 mm 21.0 W/m2 BKN
09:01 -19.2 °C -23.7 °C 34716.7 hPa WSW 17.9 km/h 17.9 km/h 54 % 0 mm 35.0 W/m2 BKN
09:06 -19.1 °C -23.6 °C 34716.7 hPa WSW 17.9 km/h 17.9 km/h 54 % 0 mm 47.0 W/m2 BKN
09:11 -19.1 °C -23.6 °C 34716.7 hPa WSW 17.9 km/h 17.9 km/h 54 % 0 mm 53.0 W/m2 BKN
09:16 -19 °C -23.6 °C 34716.7 hPa WSW 20.9 km/h 20.9 km/h 53 % 0 mm 72.0 W/m2 BKN
09:21 -18.8 °C -23.6 °C 34716.7 hPa WSW 17.9 km/h 17.9 km/h 52 % 0 mm 88.0 W/m2 BKN
09:26 -18.7 °C -23.6 °C 34716.7 hPa WSW 23.8 km/h 23.8 km/h 51 % 0 mm 98.0 W/m2 BKN
09:31 -18.6 °C -23.6 °C 34716.7 hPa WSW 20.9 km/h 20.9 km/h 50 % 0 mm 113.0 W/m2 BKN
09:36 -18.4 °C -23.7 °C 34716.7 hPa West 23.8 km/h 23.8 km/h 48 % 0 mm 125.0 W/m2 BKN
09:42 -18.3 °C -23.8 °C 34716.7 hPa West 20.9 km/h 20.9 km/h 47 % 0 mm 141.0 W/m2 BKN
09:47 -18.2 °C -23.8 °C 34716.7 hPa West 25.9 km/h 25.9 km/h 46 % 0 mm 155.0 W/m2 BKN
09:52 -18.1 °C -23.8 °C 34726.8 hPa West 23.8 km/h 23.8 km/h 46 % 0 mm 169.0 W/m2 SCT
09:57 -18.1 °C -23.9 °C 34726.8 hPa West 23.8 km/h 23.8 km/h 45 % 0 mm 181.0 W/m2 SCT
10:02 -18 °C -23.8 °C 34726.8 hPa West 23.8 km/h 23.8 km/h 45 % 0 mm 174.0 W/m2 BKN
10:07 -17.9 °C -23.9 °C 34726.8 hPa West 35.7 km/h 35.7 km/h 44 % 0 mm 213.0 W/m2 SCT
10:12 -17.9 °C -23.9 °C 34726.8 hPa West 38.8 km/h 38.8 km/h 44 % 0 mm 216.0 W/m2 SCT
10:17 -17.9 °C -23.9 °C 34726.8 hPa WNW 29.8 km/h 29.8 km/h 44 % 0 mm 244.0 W/m2 SCT
10:22 -17.8 °C -23.8 °C 34716.7 hPa WNW 35.7 km/h 35.7 km/h 44 % 0 mm 257.0 W/m2 SCT
10:27 -17.8 °C -23.7 °C 34716.7 hPa WNW 41.7 km/h 41.7 km/h 45 % 0 mm 272.0 W/m2 SCT
10:32 -17.7 °C -23.9 °C 34716.7 hPa WNW 32.8 km/h 32.8 km/h 43 % 0 mm 283.0 W/m2 SCT
10:37 -17.6 °C -23.8 °C 34716.7 hPa West 29.8 km/h 29.8 km/h 43 % 0 mm 294.0 W/m2 SCT
10:42 -17.6 °C -24.1 °C 34716.7 hPa West 38.8 km/h 38.8 km/h 41 % 0 mm 304.0 W/m2 SCT
10:47 -17.6 °C -23.9 °C 34716.7 hPa West 44.7 km/h 44.7 km/h 42 % 0 mm 316.0 W/m2 FEW
10:52 -17.6 °C -23.9 °C 34716.7 hPa West 38.8 km/h 38.8 km/h 42 % 0 mm 325.0 W/m2 FEW
10:57 -17.4 °C -23.7 °C 34726.8 hPa West 33.6 km/h 33.6 km/h 43 % 0 mm 334.0 W/m2 FEW
11:02 -17.4 °C -23.7 °C 34726.8 hPa WNW 38.8 km/h 38.8 km/h 43 % 0 mm 345.0 W/m2 FEW
11:07 -17.3 °C -23.6 °C 34726.8 hPa WNW 35.7 km/h 35.7 km/h 43 % 0 mm 353.0 W/m2 FEW
11:12 -17.2 °C -23.6 °C 34726.8 hPa West 33.6 km/h 33.6 km/h 42 % 0 mm 364.0 W/m2 FEW
11:17 -17.2 °C -23.6 °C 34726.8 hPa WNW 32.8 km/h 32.8 km/h 42 % 0 mm 371.0 W/m2 FEW
11:22 -17.1 °C -23.5 °C 34726.8 hPa NW 29.8 km/h 29.8 km/h 42 % 0 mm 380.0 W/m2 FEW
11:27 -17.1 °C -23.7 °C 34726.8 hPa WNW 44.7 km/h 44.7 km/h 41 % 0 mm 388.0 W/m2 FEW
11:32 -17.1 °C -23.5 °C 34726.8 hPa WNW 28.5 km/h 28.5 km/h 42 % 0 mm 397.0 W/m2 FEW
11:37 -17 °C -23.6 °C 34726.8 hPa WNW 38.8 km/h 38.8 km/h 41 % 0 mm 404.0 W/m2 FEW
11:42 -17 °C -23.6 °C 34726.8 hPa WNW 47.6 km/h 47.6 km/h 41 % 0 mm 411.0 W/m2 FEW
11:47 -17 °C -23.4 °C 34716.7 hPa West 38.8 km/h 38.8 km/h 42 % 0 mm 417.0 W/m2 FEW
11:52 -16.9 °C -23.3 °C 34716.7 hPa West 46.7 km/h 46.7 km/h 42 % 0 mm 424.0 W/m2 FEW
11:57 -16.9 °C -23.3 °C 34716.7 hPa WNW 47.6 km/h 47.6 km/h 42 % 0 mm 429.0 W/m2 CLR
12:02 -16.9 °C -23.3 °C 34716.7 hPa WNW 50.7 km/h 50.7 km/h 42 % 0 mm 436.0 W/m2 CLR
12:07 -16.9 °C -23.3 °C 34716.7 hPa NW 35.7 km/h 35.7 km/h 42 % 0 mm 439.0 W/m2 CLR
12:12 -16.8 °C -23.2 °C 34703.1 hPa WNW 44.7 km/h 44.7 km/h 42 % 0 mm 445.0 W/m2 CLR
12:17 -16.7 °C -23.2 °C 34703.1 hPa WNW 41.4 km/h 41.4 km/h 42 % 0 mm 450.0 W/m2 CLR
12:22 -16.7 °C -23.2 °C 34703.1 hPa WNW 38.8 km/h 38.8 km/h 42 % 0 mm 452.0 W/m2 CLR
12:27 -16.8 °C -23 °C 34703.1 hPa West 50.7 km/h 50.7 km/h 43 % 0 mm 455.0 W/m2 CLR
12:32 -16.8 °C -23 °C 34703.1 hPa West 47.6 km/h 47.6 km/h 43 % 0 mm 459.0 W/m2 CLR
12:37 -16.6 °C -22.7 °C 34703.1 hPa WNW 41.7 km/h 41.7 km/h 44 % 0 mm 461.0 W/m2 CLR
12:42 -16.7 °C -22.8 °C 34703.1 hPa WNW 44.7 km/h 44.7 km/h 44 % 0 mm 462.0 W/m2 CLR
12:47 -16.8 °C -22.9 °C 34703.1 hPa WNW 29.8 km/h 29.8 km/h 44 % 0 mm 464.0 W/m2 CLR
12:52 -16.5 °C -22.4 °C 34703.1 hPa WNW 29.8 km/h 29.8 km/h 45 % 0 mm 466.0 W/m2 CLR
12:57 -16.3 °C -22.3 °C 34703.1 hPa NW 44.7 km/h 44.7 km/h 45 % 0 mm 468.0 W/m2 CLR
13:02 -16.4 °C -22.6 °C 34703.1 hPa NW 50.7 km/h 50.7 km/h 44 % 0 mm 469.0 W/m2 CLR
13:07 -16.4 °C -22.4 °C 34703.1 hPa NW 38.8 km/h 38.8 km/h 45 % 0 mm 469.0 W/m2 CLR
13:12 -16.4 °C -22.3 °C 34703.1 hPa NW 38.8 km/h 38.8 km/h 46 % 0 mm 471.0 W/m2 CLR
13:17 -16.5 °C -22.3 °C 34703.1 hPa NW 38.8 km/h 38.8 km/h 46 % 0 mm 450.0 W/m2 CLR
13:22 -16.4 °C -22.1 °C 34693 hPa NW 29.8 km/h 29.8 km/h 47 % 0 mm 471.0 W/m2 CLR
13:27 -16.3 °C -22.2 °C 34693 hPa NW 38.8 km/h 38.8 km/h 46 % 0 mm 480.0 W/m2 CLR
13:32 -16.3 °C -22.2 °C 34693 hPa NW 38.8 km/h 38.8 km/h 46 % 0 mm 489.0 W/m2 CLR
13:37 -16.3 °C -21.9 °C 34693 hPa NW 44.7 km/h 44.7 km/h 47 % 0 mm 501.0 W/m2 CLR
13:42 -16.2 °C -21.9 °C 34693 hPa WNW 32.8 km/h 32.8 km/h 47 % 0 mm 436.0 W/m2 CLR
13:47 -16.3 °C -22 °C 34693 hPa WNW 29.8 km/h 29.8 km/h 47 % 0 mm 424.0 W/m2 CLR
13:52 -16.3 °C -21.8 °C 34682.8 hPa WNW 26.9 km/h 26.9 km/h 48 % 0 mm 448.0 W/m2 CLR
13:57 -16.2 °C -21.7 °C 34682.8 hPa WNW 31.1 km/h 31.1 km/h 48 % 0 mm 427.0 W/m2 CLR
14:02 -16.2 °C -21.7 °C 34682.8 hPa NW 41.7 km/h 41.7 km/h 48 % 0 mm 411.0 W/m2 CLR
14:07 -16.2 °C -21.7 °C 34682.8 hPa NW 32.8 km/h 32.8 km/h 48 % 0 mm 343.0 W/m2 CLR
14:12 -16.1 °C -21.6 °C 34682.8 hPa NW 44.7 km/h 44.7 km/h 48 % 0 mm 422.0 W/m2 CLR
14:17 -16.3 °C -21.6 °C 34682.8 hPa NW 29.8 km/h 29.8 km/h 49 % 0 mm 454.0 W/m2 FEW
14:22 -16.1 °C -21.5 °C 34682.8 hPa NW 38.8 km/h 38.8 km/h 49 % 0 mm 404.0 W/m2 FEW
14:27 -16.1 °C -21.6 °C 34682.8 hPa NW 38.8 km/h 38.8 km/h 48 % 0 mm 388.0 W/m2 CLR
14:32 -16.1 °C -21.6 °C 34682.8 hPa NW 29.8 km/h 29.8 km/h 48 % 0 mm 403.0 W/m2 FEW
14:37 -16.1 °C -21.6 °C 34682.8 hPa NW 23.8 km/h 23.8 km/h 48 % 0 mm 429.0 W/m2 CLR
14:42 -16.1 °C -21.3 °C 34682.8 hPa NW 20.9 km/h 20.9 km/h 50 % 0 mm 374.0 W/m2 CLR
14:47 -16.1 °C -21.3 °C 34682.8 hPa NNW 23.8 km/h 23.8 km/h 50 % 0 mm 207.0 W/m2 CLR
14:52 -16.2 °C -21.4 °C 34682.8 hPa NNW 29.8 km/h 29.8 km/h 50 % 0 mm 316.0 W/m2 SCT
14:57 -16.2 °C -21.3 °C 34682.8 hPa NW 18.2 km/h 18.2 km/h 51 % 0 mm 374.0 W/m2 FEW
15:02 -16.1 °C -21.2 °C 34682.8 hPa NW 29.8 km/h 29.8 km/h 51 % 0 mm 281.0 W/m2 CLR
15:07 -16.1 °C -21.2 °C 34682.8 hPa NW 20.9 km/h 20.9 km/h 51 % 0 mm 292.0 W/m2 CLR
15:12 -16.2 °C -21.2 °C 34682.8 hPa WNW 23.8 km/h 23.8 km/h 51 % 0 mm 315.0 W/m2 FEW
15:18 -16.1 °C -21.2 °C 34682.8 hPa NW 25.9 km/h 25.9 km/h 51 % 0 mm 302.0 W/m2 CLR
15:23 -16.1 °C -21.1 °C 34682.8 hPa NW 20.9 km/h 20.9 km/h 52 % 0 mm 229.0 W/m2 CLR
15:28 -16.1 °C -21.1 °C 34682.8 hPa WNW 20.9 km/h 20.9 km/h 52 % 0 mm 227.0 W/m2 FEW
15:33 -16.1 °C -21 °C 34682.8 hPa WNW 25.9 km/h 25.9 km/h 52 % 0 mm 251.0 W/m2 SCT
15:38 -16.1 °C -21.2 °C 34682.8 hPa WNW 17.9 km/h 17.9 km/h 51 % 0 mm 250.0 W/m2 FEW
15:43 -16 °C -21.1 °C 34682.8 hPa NW 18.2 km/h 18.2 km/h 51 % 0 mm 274.0 W/m2 CLR
15:48 -15.9 °C -21 °C 34682.8 hPa NW 33.6 km/h 33.6 km/h 51 % 0 mm 272.0 W/m2 CLR
15:53 -15.9 °C -21.2 °C 34682.8 hPa WNW 26.9 km/h 26.9 km/h 50 % 0 mm 274.0 W/m2 CLR
15:58 -15.9 °C -21.1 °C 34682.8 hPa WNW 23.8 km/h 23.8 km/h 50 % 0 mm 264.0 W/m2 CLR
16:03 -15.8 °C -21.1 °C 34682.8 hPa WNW 26.9 km/h 26.9 km/h 50 % 0 mm 253.0 W/m2 CLR
16:08 -15.9 °C -21.1 °C 34682.8 hPa WNW 29.8 km/h 29.8 km/h 50 % 0 mm 237.0 W/m2 CLR
16:13 -15.8 °C -21.1 °C 34682.8 hPa WNW 26.9 km/h 26.9 km/h 50 % 0 mm 223.0 W/m2 CLR
16:18 -15.8 °C -21.2 °C 34693 hPa WNW 29.8 km/h 29.8 km/h 49 % 0 mm 209.0 W/m2 CLR
16:23 -15.8 °C -21.1 °C 34682.8 hPa WNW 29.8 km/h 29.8 km/h 50 % 0 mm 197.0 W/m2 CLR
16:33 -15.8 °C -21.2 °C 34682.8 hPa West 26.9 km/h 26.9 km/h 49 % 0 mm 165.0 W/m2 CLR
16:38 -15.9 °C -21.3 °C 34682.8 hPa West 26.9 km/h 26.9 km/h 49 % 0 mm 151.0 W/m2 CLR
16:43 -15.9 °C -21.3 °C 34682.8 hPa West 32.8 km/h 32.8 km/h 49 % 0 mm 137.0 W/m2 CLR
16:48 -15.9 °C -21.3 °C 34693 hPa WNW 26.9 km/h 26.9 km/h 49 % 0 mm 120.0 W/m2 CLR
16:53 -16 °C -21.4 °C 34682.8 hPa WNW 29.8 km/h 29.8 km/h 49 % 0 mm 107.0 W/m2 CLR
16:58 -16.1 °C -21.4 °C 34693 hPa NW 25.9 km/h 25.9 km/h 49 % 0 mm 95.0 W/m2 CLR
17:04 -16.1 °C -21.3 °C 34693 hPa WNW 29.8 km/h 29.8 km/h 50 % 0 mm 63.0 W/m2 CLR
17:15 -16.1 °C -21.3 °C 34693 hPa WNW 12.9 km/h 13.5 km/h 50 % 0 mm 53.0 W/m2 OVC
17:20 -16.2 °C -21.2 °C 34693 hPa WNW 15 km/h 16.6 km/h 51 % 0 mm 44.0 W/m2 OVC
17:25 -16.2 °C -21.3 °C 34703.1 hPa WNW 15 km/h 15 km/h 51 % 0 mm 33.0 W/m2 OVC
17:30 -16.3 °C -21.4 °C 34703.1 hPa WNW 15 km/h 15 km/h 51 % 0 mm 26.0 W/m2 OVC
17:35 -16.3 °C -21.3 °C 34703.1 hPa NW 9 km/h 9 km/h 52 % 0 mm 19.0 W/m2 OVC
17:40 -16.4 °C -21.3 °C 34703.1 hPa WNW 9 km/h   52 % 0 mm 16.0 W/m2 OVC
17:45 -16.5 °C -21.4 °C 34703.1 hPa WNW 9 km/h 9 km/h 52 % 0 mm 12.0 W/m2 OVC
17:50 -16.6 °C -21.3 °C 34703.1 hPa West 15 km/h 15 km/h 53 % 0 mm 11.0 W/m2 OVC
17:55 -16.6 °C -21.4 °C 34703.1 hPa West 9 km/h 9 km/h 53 % 0 mm 7.0 W/m2 OVC
18:00 -16.7 °C -21.3 °C 34703.1 hPa West 9 km/h 9 km/h 54 % 0 mm 5.0 W/m2 OVC
18:05 -16.8 °C -21.3 °C 34716.7 hPa WNW 9 km/h 9 km/h 55 % 0 mm 0.0 W/m2 CLR
18:10 -17 °C -21.3 °C 34716.7 hPa WNW 9 km/h 9 km/h 56 % 0 mm 0.0 W/m2 CLR
18:15 -17.2 °C -21.6 °C 34716.7 hPa WNW 9 km/h 9 km/h 56 % 0 mm 0.0 W/m2 CLR
18:20 -17.3 °C -21.4 °C 34716.7 hPa WNW 9 km/h 9 km/h 57 % 0 mm 0.0 W/m2 CLR
19:00 -17.8 °C -21.6 °C 34740.4 hPa Calm     60 % 0 mm 0.0 W/m2 CLR
19:05 -17.9 °C -21.5 °C 34740.4 hPa Calm     62 % 0 mm 0.0 W/m2 CLR
19:10 -18 °C -21.6 °C 34750.5 hPa Calm     62 % 0 mm 0.0 W/m2 CLR
19:15 -18.1 °C -21.5 °C 34740.4 hPa West 6 km/h 6 km/h 63 % 0 mm 0.0 W/m2 CLR
19:20 -18.1 °C -21.4 °C 34750.5 hPa West 20.9 km/h 20.9 km/h 64 % 0 mm 0.0 W/m2 CLR
19:25 -18 °C -21.4 °C 34750.5 hPa WSW 18.2 km/h 18.2 km/h 63 % 0 mm 0.0 W/m2 CLR
19:30 -17.9 °C -21.4 °C 34750.5 hPa West 15 km/h 15 km/h 63 % 0 mm 0.0 W/m2 CLR
19:35 -17.8 °C -21.3 °C 34750.5 hPa West 20.9 km/h 20.9 km/h 63 % 0 mm 0.0 W/m2 CLR
19:40 -17.7 °C -21.1 °C 34750.5 hPa West 20.9 km/h 20.9 km/h 64 % 0 mm 0.0 W/m2 CLR
19:45 -17.7 °C -21.1 °C 34750.5 hPa WNW 15.6 km/h 15.6 km/h 64 % 0 mm 0.0 W/m2 CLR
19:50 -17.7 °C -21.1 °C 34760.7 hPa WNW 12.9 km/h 12.9 km/h 64 % 0 mm 0.0 W/m2 CLR
19:56 -17.8 °C -21 °C 34760.7 hPa WNW 11.9 km/h 11.9 km/h 65 % 0 mm 0.0 W/m2 CLR
20:01 -17.8 °C -21 °C 34760.7 hPa West 9 km/h 9 km/h 65 % 0 mm 0.0 W/m2 CLR
20:05 -17.9 °C -21.1 °C 34760.7 hPa West 9 km/h 9 km/h 65 % 0 mm 0.0 W/m2 CLR
20:11 -18 °C -21.1 °C 34760.7 hPa West 6 km/h   66 % 0 mm 0.0 W/m2 CLR
20:16 -18.2 °C -21 °C 34760.7 hPa West 11.9 km/h 11.9 km/h 68 % 0 mm 0.0 W/m2 CLR
20:21 -18.1 °C -20.9 °C 34760.7 hPa West 15 km/h 15 km/h 69 % 0 mm 0.0 W/m2 CLR
20:26 -18 °C -20.8 °C 34760.7 hPa WNW 9 km/h 9 km/h 69 % 0 mm 0.0 W/m2 CLR
20:31 -18.1 °C -20.8 °C 34760.7 hPa West 6 km/h 6 km/h 69 % 0 mm 0.0 W/m2 CLR
20:36 -18.1 °C -20.9 °C 34774.2 hPa Calm     69 % 0 mm 0.0 W/m2 CLR
20:41 -18.2 °C -20.9 °C 34760.7 hPa Calm     69 % 0 mm 0.0 W/m2 CLR
20:46 -18.3 °C -20.9 °C 34774.2 hPa Calm     70 % 0 mm 0.0 W/m2 CLR
20:51 -18.4 °C -21.1 °C 34774.2 hPa Calm     70 % 0 mm 0.0 W/m2 CLR
20:56 -18.5 °C -21.1 °C 34774.2 hPa Calm     71 % 0 mm 0.0 W/m2 CLR
21:01 -18.6 °C -21 °C 34774.2 hPa Calm   1.3 km/h 72 % 0 mm 0.0 W/m2 CLR
21:06 -18.6 °C -20.9 °C 34774.2 hPa West 9 km/h 9 km/h 73 % 0 mm 0.0 W/m2 CLR
21:11 -18.5 °C -20.8 °C 34774.2 hPa West 9 km/h 9 km/h 73 % 0 mm 0.0 W/m2 CLR
21:16 -18.4 °C -20.8 °C 34774.2 hPa West 9 km/h 9 km/h 73 % 0 mm 0.0 W/m2 CLR
21:21 -18.6 °C -21 °C 34774.2 hPa WSW 6 km/h 6 km/h 72 % 0 mm 0.0 W/m2 CLR
21:26 -18.7 °C -21.1 °C 34774.2 hPa WSW 9 km/h 9 km/h 73 % 0 mm 0.0 W/m2 CLR
21:31 -18.8 °C -21.1 °C 34774.2 hPa WSW 15 km/h 15 km/h 74 % 0 mm 0.0 W/m2 CLR
21:36 -18.8 °C -21 °C 34774.2 hPa WSW 11.9 km/h 11.9 km/h 75 % 0 mm 0.0 W/m2 CLR
21:41 -18.9 °C -21 °C 34774.2 hPa WSW 10.3 km/h 10.3 km/h 75 % 0 mm 0.0 W/m2 CLR
21:46 -18.9 °C -21 °C 34774.2 hPa WSW 15 km/h 15 km/h 75 % 0 mm 0.0 W/m2 CLR
21:51 -18.9 °C -21.1 °C 34774.2 hPa WSW 15 km/h 15 km/h 75 % 0 mm 0.0 W/m2 CLR
21:56 -18.9 °C -20.9 °C 34774.2 hPa WSW 17.9 km/h 17.9 km/h 76 % 0 mm 0.0 W/m2 CLR
22:01 -18.9 °C -20.9 °C 34774.2 hPa WSW 15.6 km/h 15.6 km/h 76 % 0 mm 0.0 W/m2 CLR
22:06 -18.9 °C -20.9 °C 34774.2 hPa WSW 15 km/h 15 km/h 76 % 0 mm 0.0 W/m2 CLR
22:11 -18.9 °C -20.9 °C 34774.2 hPa WSW 17.9 km/h 17.9 km/h 76 % 0 mm 0.0 W/m2 CLR
22:16 -18.9 °C -21 °C 34774.2 hPa WSW 17.9 km/h 17.9 km/h 76 % 0 mm 0.0 W/m2 CLR
22:21 -18.9 °C -21 °C 34774.2 hPa WSW 15 km/h 15 km/h 76 % 0 mm 0.0 W/m2 CLR
22:26 -19 °C -21 °C 34774.2 hPa WSW 17.9 km/h 17.9 km/h 76 % 0 mm 0.0 W/m2 CLR
22:32 -19 °C -21 °C 34774.2 hPa WSW 9 km/h 9 km/h 76 % 0 mm 0.0 W/m2 CLR
22:37 -19.1 °C -21.1 °C 34774.2 hPa WSW 2.6 km/h 2.6 km/h 76 % 0 mm 0.0 W/m2 CLR
22:42 -19.3 °C -21.3 °C 34774.2 hPa Calm     76 % 0 mm 0.0 W/m2 CLR
22:47 -19.4 °C -21.3 °C 34774.2 hPa Calm     77 % 0 mm 0.0 W/m2 CLR
22:52 -19.4 °C -21.2 °C 34774.2 hPa WSW 2.6 km/h 2.6 km/h 78 % 0 mm 0.0 W/m2 CLR
22:57 -19.6 °C -21.3 °C 34774.2 hPa WSW 10.3 km/h 10.3 km/h 78 % 0 mm 0.0 W/m2 CLR
23:02 -19.5 °C -21.2 °C 34774.2 hPa WSW 15 km/h 15 km/h 80 % 0 mm 0.0 W/m2 CLR
23:07 -19.4 °C -21.1 °C 34774.2 hPa WSW 15 km/h 15 km/h 80 % 0 mm 0.0 W/m2 CLR
23:12 -19.3 °C -21.1 °C 34774.2 hPa SW 17.9 km/h 17.9 km/h 79 % 0 mm 0.0 W/m2 CLR
23:17 -19.2 °C -21 °C 34774.2 hPa WSW 9 km/h 9 km/h 79 % 0 mm 0.0 W/m2 CLR
23:22 -19.2 °C -21.1 °C 34774.2 hPa Calm     78 % 0 mm 0.0 W/m2 CLR
23:27 -19.3 °C -21.2 °C 34784.4 hPa SSW 15 km/h 15 km/h 78 % 0 mm 0.0 W/m2 CLR
23:32 -19.2 °C -21 °C 34784.4 hPa SW 17.9 km/h 17.9 km/h 79 % 0 mm 0.0 W/m2 CLR
23:37 -19.2 °C -21 °C 34784.4 hPa WSW 15.6 km/h 15.6 km/h 78 % 0 mm 0.0 W/m2 CLR
23:42 -19.1 °C -20.9 °C 34784.4 hPa WSW 12.9 km/h 12.9 km/h 78 % 0 mm 0.0 W/m2 CLR
23:47 -19.1 °C -21 °C 34774.2 hPa WSW 15 km/h 15 km/h 77 % 0 mm 0.0 W/m2 CLR
23:52 -19 °C -20.9 °C 34774.2 hPa WSW 15 km/h 15 km/h 77 % 0 mm 0.0 W/m2 CLR
23:57 -18.9 °C -20.9 °C 34784.4 hPa WSW 12.9 km/h 12.9 km/h 77 % 0 mm 0.0 W/m2 CLR
Lo Temps de Massalio
Compliments of Weather Underground - 1.25 mb